Time;durP1;ratioP1;P1;durP2;ratioP2;P2;SDS_P1;SDS_P2;PMS_P1;PMS_P2;Temp;Humidity;BMP_temperature;BMP_pressure;BME280_temperature;BME280_humidity;BME280_pressure;Samples;Min_cycle;Max_cycle;Signal;HPM_P1;HPM_P2
2023/10/05 00:04:39;;;;;;;2.33;1.60;;;;;;;;;;5072600;28;20411;-77
2023/10/05 00:07:06;;;;;;;2.33;1.80;;;;;;;;;;5073767;28;20419;-78
2023/10/05 00:09:32;;;;;;;2.88;1.92;;;;;;;;;;5073371;28;20404;-77
2023/10/05 00:12:01;;;;;;;2.50;1.80;;;;;;;;;;5073750;28;20383;-77
2023/10/05 00:14:27;;;;;;;4.00;1.90;;;;;;;;;;5093744;28;20381;-78
2023/10/05 00:16:55;;;;;;;2.45;1.85;;;;;;;;;;5093435;28;20382;-77
2023/10/05 00:19:23;;;;;;;2.28;1.70;;;;;;;;;;5088731;28;20375;-77
2023/10/05 00:24:18;;;;;;;1.98;1.70;;;;;;;;;;5088874;28;20386;-78
2023/10/05 00:26:50;;;;;;;2.13;1.55;;;;;;;;;;5093326;28;20809;-77
2023/10/05 00:29:26;;;;;;;1.90;1.70;;;;;;;;;;5090360;28;20388;-78
2023/10/05 00:31:53;;;;;;;2.05;1.80;;;;;;;;;;5072979;28;20392;-77
2023/10/05 00:34:24;;;;;;;2.97;1.77;;;;;;;;;;5072904;28;20844;-77
2023/10/05 00:36:50;;;;;;;2.00;1.63;;;;;;;;;;5074457;28;20402;-77
2023/10/05 00:39:20;;;;;;;3.63;1.80;;;;;;;;;;5085061;28;20794;-77
2023/10/05 00:41:50;;;;;;;2.60;1.73;;;;;;;;;;5065595;28;20757;-77
2023/10/05 00:44:16;;;;;;;3.10;1.70;;;;;;;;;;5071628;28;20391;-77
2023/10/05 00:46:48;;;;;;;2.13;1.58;;;;;;;;;;5072645;28;20473;-77
2023/10/05 00:49:25;;;;;;;2.40;1.55;;;;;;;;;;5082316;28;20400;-77
2023/10/05 00:52:07;;;;;;;2.00;1.55;;;;;;;;;;5083620;28;20844;-78
2023/10/05 00:54:34;;;;;;;2.00;1.70;;;;;;;;;;5084990;28;20378;-77
2023/10/05 00:57:05;;;;;;;2.42;1.70;;;;;;;;;;5092597;28;20866;-78
2023/10/05 00:59:32;;;;;;;3.13;1.98;;;;;;;;;;5086338;28;20375;-77
2023/10/05 01:08:15;;;;;;;1.97;1.73;;;;;;;;;;5075220;28;20487;-77
2023/10/05 01:10:27;;;;;;;2.00;1.70;;;;;;;;;;5068456;28;20386;-78
2023/10/05 01:12:54;;;;;;;1.83;1.58;;;;;;;;;;5087423;28;20380;-77
2023/10/05 01:15:22;;;;;;;3.67;1.90;;;;;;;;;;5084322;28;20384;-78
2023/10/05 01:17:51;;;;;;;2.40;1.80;;;;;;;;;;5086539;28;20380;-78
2023/10/05 01:22:45;;;;;;;2.30;1.90;;;;;;;;;;5087965;28;20382;-78
2023/10/05 01:25:14;;;;;;;2.45;1.65;;;;;;;;;;5091908;28;20419;-79
2023/10/05 01:27:47;;;;;;;2.67;1.80;;;;;;;;;;5095671;28;20375;-77
2023/10/05 01:30:16;;;;;;;2.40;1.70;;;;;;;;;;5096869;28;20432;-78
2023/10/05 01:32:43;;;;;;;2.35;1.80;;;;;;;;;;5093377;28;20406;-77
2023/10/05 01:35:12;;;;;;;2.03;1.80;;;;;;;;;;5088478;28;20840;-78
2023/10/05 01:37:39;;;;;;;2.80;1.77;;;;;;;;;;5090643;28;20463;-77
2023/10/05 01:40:24;;;;;;;2.05;1.60;;;;;;;;;;5085094;28;20394;-77
2023/10/05 01:42:52;;;;;;;2.35;1.65;;;;;;;;;;5094982;28;20393;-78
2023/10/05 01:45:33;;;;;;;4.38;1.70;;;;;;;;;;5088529;28;20413;-77
2023/10/05 01:48:04;;;;;;;3.05;1.77;;;;;;;;;;5086316;28;20434;-78
2023/10/05 01:50:32;;;;;;;2.25;1.85;;;;;;;;;;5090017;28;20519;-78
2023/10/05 01:53:07;;;;;;;2.05;1.50;;;;;;;;;;5093588;28;20401;-77
2023/10/05 01:55:39;;;;;;;2.25;1.65;;;;;;;;;;5086473;28;20807;-77
2023/10/05 01:58:09;;;;;;;2.20;1.83;;;;;;;;;;5097502;28;20377;-78
2023/10/05 02:00:38;;;;;;;3.28;1.80;;;;;;;;;;5098234;28;20378;-78
2023/10/05 02:03:08;;;;;;;3.20;1.90;;;;;;;;;;5099630;28;20366;-77
2023/10/05 02:05:34;;;;;;;3.50;1.67;;;;;;;;;;5099336;28;20398;-77
2023/10/05 02:08:01;;;;;;;1.77;1.60;;;;;;;;;;5069215;28;20388;-77
2023/10/05 02:10:32;;;;;;;3.03;1.80;;;;;;;;;;5086993;28;20416;-78
2023/10/05 02:13:00;;;;;;;2.25;2.00;;;;;;;;;;5098636;28;20386;-78
2023/10/05 02:15:30;;;;;;;3.22;1.80;;;;;;;;;;5098350;28;20411;-78
2023/10/05 02:17:59;;;;;;;1.93;1.40;;;;;;;;;;5080321;28;20402;-78
2023/10/05 02:20:38;;;;;;;2.75;1.80;;;;;;;;;;5080163;28;20431;-77
2023/10/05 02:23:17;;;;;;;3.30;1.85;;;;;;;;;;5089026;28;20385;-77
2023/10/05 02:25:44;;;;;;;2.20;1.70;;;;;;;;;;5087119;28;20423;-78
2023/10/05 02:28:22;;;;;;;3.00;1.75;;;;;;;;;;5102449;28;20390;-78
2023/10/05 02:30:49;;;;;;;2.83;1.67;;;;;;;;;;5088825;28;20468;-77
2023/10/05 02:33:15;;;;;;;2.45;1.70;;;;;;;;;;5083675;28;20386;-77
2023/10/05 02:35:41;;;;;;;2.83;1.98;;;;;;;;;;5089380;28;20395;-77
2023/10/05 02:38:07;;;;;;;2.17;1.70;;;;;;;;;;5082788;28;20383;-77
2023/10/05 02:40:39;;;;;;;3.13;1.73;;;;;;;;;;5095476;28;20389;-78
2023/10/05 02:43:09;;;;;;;3.30;2.00;;;;;;;;;;5096753;28;20380;-78
2023/10/05 02:45:38;;;;;;;2.30;1.70;;;;;;;;;;5084254;28;20753;-78
2023/10/05 02:48:09;;;;;;;2.40;1.73;;;;;;;;;;5087543;28;20935;-78
2023/10/05 02:50:38;;;;;;;2.30;1.90;;;;;;;;;;5103546;28;20383;-77
2023/10/05 02:53:08;;;;;;;2.30;1.80;;;;;;;;;;5101548;28;20389;-78
2023/10/05 02:55:37;;;;;;;2.90;2.30;;;;;;;;;;5083785;28;20387;-78
2023/10/05 02:58:04;;;;;;;2.78;1.90;;;;;;;;;;5084553;28;20441;-77
2023/10/05 03:00:33;;;;;;;2.00;1.80;;;;;;;;;;5092259;28;20379;-78
2023/10/05 03:03:02;;;;;;;3.42;1.92;;;;;;;;;;5086083;28;20388;-78
2023/10/05 03:05:28;;;;;;;2.10;1.70;;;;;;;;;;5079026;28;20399;-77
2023/10/05 03:07:54;;;;;;;2.33;1.90;;;;;;;;;;5075204;28;20868;-77
2023/10/05 03:10:23;;;;;;;3.42;1.88;;;;;;;;;;5074891;28;20383;-77
2023/10/05 03:12:49;;;;;;;2.42;1.85;;;;;;;;;;5074742;28;20375;-77
2023/10/05 03:15:15;;;;;;;2.33;1.60;;;;;;;;;;5093280;28;20386;-79
2023/10/05 03:17:45;;;;;;;2.00;1.70;;;;;;;;;;5065790;28;20458;-78
2023/10/05 03:20:17;;;;;;;2.33;1.80;;;;;;;;;;5082842;28;20391;-78
2023/10/05 03:22:46;;;;;;;2.73;1.83;;;;;;;;;;5102910;28;20382;-78
2023/10/05 03:25:14;;;;;;;2.27;1.80;;;;;;;;;;5092034;28;20899;-78
2023/10/05 03:27:41;;;;;;;3.17;1.70;;;;;;;;;;5100931;28;20863;-78
2023/10/05 03:30:13;;;;;;;2.40;1.90;;;;;;;;;;5102276;28;20446;-78
2023/10/05 03:32:40;;;;;;;4.07;1.90;;;;;;;;;;5086123;28;20848;-78
2023/10/05 03:35:09;;;;;;;2.65;1.80;;;;;;;;;;5097010;28;20386;-79
2023/10/05 03:37:39;;;;;;;2.75;1.88;;;;;;;;;;5096460;28;20383;-78
2023/10/05 03:42:31;;;;;;;3.20;1.90;;;;;;;;;;5090688;28;20457;-77
2023/10/05 03:45:03;;;;;;;2.40;2.10;;;;;;;;;;5093638;28;20405;-78
2023/10/05 03:47:30;;;;;;;1.83;1.70;;;;;;;;;;5081741;28;20394;-77
2023/10/05 03:49:56;;;;;;;2.40;1.95;;;;;;;;;;5092258;28;20388;-77
2023/10/05 03:52:23;;;;;;;2.38;1.75;;;;;;;;;;5093980;28;20735;-77
2023/10/05 03:54:49;;;;;;;2.58;1.90;;;;;;;;;;5092457;28;20377;-77
2023/10/05 03:57:16;;;;;;;3.03;2.20;;;;;;;;;;5093431;28;20382;-78
2023/10/05 03:59:43;;;;;;;2.50;2.10;;;;;;;;;;5094279;28;20378;-78
2023/10/05 04:02:09;;;;;;;2.00;1.73;;;;;;;;;;5093683;28;20436;-78
2023/10/05 04:04:37;;;;;;;2.67;2.30;;;;;;;;;;5098033;28;20393;-78
2023/10/05 04:07:03;;;;;;;2.80;2.13;;;;;;;;;;5082781;28;20734;-78
2023/10/05 04:09:30;;;;;;;3.20;2.17;;;;;;;;;;5083596;28;20383;-78
2023/10/05 04:11:56;;;;;;;2.93;2.00;;;;;;;;;;5085547;28;20862;-78
2023/10/05 04:14:22;;;;;;;3.17;1.98;;;;;;;;;;5101172;28;20397;-78
2023/10/05 04:16:49;;;;;;;3.22;2.10;;;;;;;;;;5088914;28;20444;-78
2023/10/05 04:19:18;;;;;;;2.23;2.00;;;;;;;;;;5080516;28;20473;-78
2023/10/05 04:21:45;;;;;;;3.47;2.17;;;;;;;;;;5081482;28;20403;-78
2023/10/05 04:24:14;;;;;;;3.00;1.80;;;;;;;;;;5095839;28;20387;-77
2023/10/05 04:26:44;;;;;;;2.63;2.00;;;;;;;;;;5090945;28;20501;-77
2023/10/05 04:29:11;;;;;;;2.67;2.00;;;;;;;;;;5098893;28;20457;-78
2023/10/05 04:31:37;;;;;;;3.05;1.88;;;;;;;;;;5081620;28;20901;-78
2023/10/05 04:34:13;;;;;;;2.80;2.00;;;;;;;;;;5083537;28;20384;-78
2023/10/05 04:36:39;;;;;;;2.72;1.90;;;;;;;;;;5089201;28;20932;-78
2023/10/05 04:39:06;;;;;;;2.63;1.80;;;;;;;;;;5101945;28;20378;-78
2023/10/05 04:41:49;;;;;;;2.67;2.13;;;;;;;;;;5101996;28;20378;-77
2023/10/05 04:44:15;;;;;;;2.55;2.05;;;;;;;;;;5087316;28;20380;-78
2023/10/05 04:46:48;;;;;;;2.40;1.80;;;;;;;;;;5082629;28;20470;-78
2023/10/05 04:49:15;;;;;;;2.75;2.05;;;;;;;;;;5080068;28;20821;-77
2023/10/05 04:51:41;;;;;;;2.63;2.00;;;;;;;;;;5080427;28;20470;-77
2023/10/05 04:54:11;;;;;;;1.80;1.63;;;;;;;;;;5081199;28;20372;-78
2023/10/05 04:56:43;;;;;;;2.17;1.93;;;;;;;;;;5081066;28;20378;-79
2023/10/05 05:07:02;;;;;;;2.20;2.00;;;;;;;;;;5082509;28;20771;-78
2023/10/05 05:09:34;;;;;;;2.42;2.05;;;;;;;;;;5089885;28;20468;-80
2023/10/05 05:12:03;;;;;;;2.85;2.20;;;;;;;;;;5081682;28;20382;-78
2023/10/05 05:14:32;;;;;;;2.38;1.98;;;;;;;;;;5087819;28;20408;-80
2023/10/05 05:17:02;;;;;;;2.42;1.95;;;;;;;;;;5097011;28;20370;-79
2023/10/05 05:19:28;;;;;;;2.97;2.00;;;;;;;;;;5101345;28;20411;-79
2023/10/05 05:21:54;;;;;;;2.63;1.63;;;;;;;;;;5099397;28;20382;-79
2023/10/05 05:24:20;;;;;;;2.45;1.80;;;;;;;;;;5097687;28;20391;-78
2023/10/05 05:26:46;;;;;;;2.45;1.95;;;;;;;;;;5091195;28;20406;-79
2023/10/05 05:29:13;;;;;;;2.38;1.80;;;;;;;;;;5100144;28;20844;-77
2023/10/05 05:31:39;;;;;;;2.77;1.90;;;;;;;;;;5101744;28;20378;-79
2023/10/05 05:34:06;;;;;;;2.25;1.98;;;;;;;;;;5099804;28;20405;-79
2023/10/05 05:36:36;;;;;;;2.30;1.88;;;;;;;;;;5100620;28;20395;-78
2023/10/05 05:39:04;;;;;;;2.63;1.90;;;;;;;;;;5100694;28;20386;-78
2023/10/05 05:41:30;;;;;;;2.47;1.80;;;;;;;;;;5101521;28;20386;-78
2023/10/05 05:43:56;;;;;;;3.20;2.10;;;;;;;;;;5100612;28;20370;-77
2023/10/05 05:46:22;;;;;;;2.45;2.22;;;;;;;;;;5100303;28;20416;-78
2023/10/05 05:48:48;;;;;;;5.23;3.87;;;;;;;;;;5096207;28;20372;-79
2023/10/05 05:51:15;;;;;;;3.60;2.30;;;;;;;;;;5097347;28;20414;-79
2023/10/05 05:53:46;;;;;;;3.13;2.20;;;;;;;;;;5091003;28;20397;-80
2023/10/05 05:56:25;;;;;;;2.97;2.40;;;;;;;;;;5094654;28;20705;-78
2023/10/05 05:58:51;;;;;;;3.22;2.40;;;;;;;;;;5081370;28;20847;-78
2023/10/05 06:01:17;;;;;;;2.60;2.20;;;;;;;;;;5094274;28;20417;-78
2023/10/05 06:03:49;;;;;;;3.38;2.30;;;;;;;;;;5097356;28;20389;-78
2023/10/05 06:06:16;;;;;;;2.28;2.08;;;;;;;;;;5093415;28;20427;-78
2023/10/05 06:08:42;;;;;;;3.22;2.28;;;;;;;;;;5081720;28;20379;-78
2023/10/05 06:11:08;;;;;;;3.58;2.35;;;;;;;;;;5088883;28;20386;-77
2023/10/05 06:13:37;;;;;;;3.35;2.45;;;;;;;;;;5102024;28;20373;-77
2023/10/05 06:16:10;;;;;;;3.25;2.00;;;;;;;;;;5096731;28;20372;-78
2023/10/05 06:18:39;;;;;;;3.08;2.10;;;;;;;;;;5096804;28;20374;-78
2023/10/05 06:21:05;;;;;;;3.50;2.30;;;;;;;;;;5085541;28;20879;-78
2023/10/05 06:23:34;;;;;;;3.55;2.17;;;;;;;;;;5104365;28;20390;-78
2023/10/05 06:26:03;;;;;;;3.78;2.25;;;;;;;;;;5098324;28;20435;-78
2023/10/05 06:28:32;;;;;;;2.60;1.95;;;;;;;;;;5106044;28;20393;-78
2023/10/05 06:30:58;;;;;;;3.40;2.28;;;;;;;;;;5103172;28;20384;-78
2023/10/05 06:33:25;;;;;;;4.22;2.40;;;;;;;;;;5098455;28;20382;-78
2023/10/05 06:35:51;;;;;;;2.70;2.30;;;;;;;;;;5090337;28;20376;-78
2023/10/05 06:38:18;;;;;;;4.63;2.10;;;;;;;;;;5107587;28;20813;-78
2023/10/05 06:40:44;;;;;;;2.70;2.17;;;;;;;;;;5106828;28;20400;-78
2023/10/05 06:43:10;;;;;;;4.80;2.53;;;;;;;;;;5097466;28;20391;-78
2023/10/05 06:45:36;;;;;;;4.82;2.50;;;;;;;;;;5097267;28;20952;-78
2023/10/05 06:48:04;;;;;;;3.50;2.38;;;;;;;;;;5104572;28;20461;-78
2023/10/05 06:50:30;;;;;;;4.78;2.20;;;;;;;;;;5105506;28;20378;-78
2023/10/05 06:52:56;;;;;;;3.00;2.20;;;;;;;;;;5106170;28;20856;-78
2023/10/05 06:55:23;;;;;;;4.82;2.30;;;;;;;;;;5107008;28;20412;-78
2023/10/05 06:57:52;;;;;;;2.78;2.40;;;;;;;;;;5106442;28;20423;-78
2023/10/05 07:00:22;;;;;;;2.97;2.53;;;;;;;;;;5089550;28;20386;-78
2023/10/05 07:02:48;;;;;;;5.00;2.42;;;;;;;;;;5105842;28;20846;-78
2023/10/05 07:05:15;;;;;;;2.53;2.07;;;;;;;;;;5106193;28;20456;-78
2023/10/05 07:07:41;;;;;;;3.72;2.38;;;;;;;;;;5086172;28;20459;-78
2023/10/05 07:10:08;;;;;;;3.17;2.00;;;;;;;;;;5104862;28;20382;-78
2023/10/05 07:12:46;;;;;;;5.80;2.28;;;;;;;;;;5107131;28;20386;-78
2023/10/05 07:15:14;;;;;;;3.53;2.50;;;;;;;;;;5093452;28;20384;-78
2023/10/05 07:17:40;;;;;;;3.25;2.25;;;;;;;;;;5105895;28;20397;-78
2023/10/05 07:20:11;;;;;;;3.78;2.63;;;;;;;;;;5096147;28;20394;-78
2023/10/05 07:22:38;;;;;;;2.67;2.45;;;;;;;;;;5090119;28;20410;-78
2023/10/05 07:25:04;;;;;;;3.78;2.97;;;;;;;;;;5095401;28;20399;-78
2023/10/05 07:27:30;;;;;;;3.47;2.80;;;;;;;;;;5133283;22;20438;-78
2023/10/05 07:29:57;;;;;;;3.80;3.07;;;;;;;;;;5094774;28;20458;-77
2023/10/05 07:32:23;;;;;;;4.78;3.30;;;;;;;;;;5080464;28;20468;-78
2023/10/05 07:34:49;;;;;;;3.25;2.78;;;;;;;;;;5074614;28;20409;-78
2023/10/05 07:37:15;;;;;;;4.07;3.07;;;;;;;;;;5082802;28;20450;-77
2023/10/05 07:39:41;;;;;;;5.05;3.00;;;;;;;;;;5095146;28;20870;-77
2023/10/05 07:42:10;;;;;;;6.60;3.10;;;;;;;;;;5094871;28;20382;-77
2023/10/05 07:44:43;;;;;;;5.20;3.20;;;;;;;;;;5082292;28;20451;-77
2023/10/05 07:47:11;;;;;;;4.88;3.50;;;;;;;;;;5074238;28;20483;-77
2023/10/05 07:49:37;;;;;;;4.77;3.60;;;;;;;;;;5074557;28;20407;-77
2023/10/05 07:52:07;;;;;;;3.88;3.47;;;;;;;;;;5073779;28;20406;-77
2023/10/05 07:54:34;;;;;;;4.88;3.70;;;;;;;;;;5073922;28;20390;-78
2023/10/05 07:57:01;;;;;;;8.23;4.45;;;;;;;;;;5074263;28;20856;-78
2023/10/05 07:59:27;;;;;;;6.50;4.68;;;;;;;;;;5074160;28;20912;-78
2023/10/05 08:01:53;;;;;;;10.77;5.93;;;;;;;;;;5081572;28;20756;-81
2023/10/05 08:04:19;;;;;;;7.70;5.30;;;;;;;;;;5080158;28;20386;-81
2023/10/05 08:06:45;;;;;;;7.85;5.05;;;;;;;;;;5076528;28;20419;-81
2023/10/05 08:09:15;;;;;;;5.82;4.40;;;;;;;;;;5058727;28;20396;-81
2023/10/05 08:11:44;;;;;;;5.47;4.07;;;;;;;;;;5076672;28;20364;-81
2023/10/05 08:14:13;;;;;;;5.97;3.92;;;;;;;;;;5076860;28;20467;-81
2023/10/05 08:16:39;;;;;;;5.45;4.13;;;;;;;;;;5077211;28;20384;-81
2023/10/05 08:19:06;;;;;;;6.05;4.03;;;;;;;;;;5076889;28;20411;-81
2023/10/05 08:21:32;;;;;;;6.45;3.78;;;;;;;;;;5080441;28;20374;-81
2023/10/05 08:23:58;;;;;;;5.13;3.85;;;;;;;;;;5083443;28;20436;-81
2023/10/05 08:26:28;;;;;;;5.32;3.78;;;;;;;;;;5075887;28;20415;-81
2023/10/05 08:28:55;;;;;;;5.55;4.10;;;;;;;;;;5083352;28;20371;-81
2023/10/05 08:31:23;;;;;;;5.20;3.53;;;;;;;;;;5086591;28;20868;-81
2023/10/05 08:33:53;;;;;;;5.45;4.18;;;;;;;;;;5076223;28;20713;-81
2023/10/05 08:36:19;;;;;;;5.55;3.50;;;;;;;;;;5078498;28;20445;-81
2023/10/05 08:38:48;;;;;;;5.70;3.85;;;;;;;;;;5096852;28;20389;-81
2023/10/05 08:41:31;;;;;;;5.50;3.70;;;;;;;;;;5096452;28;20554;-81
2023/10/05 08:43:57;;;;;;;5.57;3.83;;;;;;;;;;5096451;28;20382;-81
2023/10/05 08:46:23;;;;;;;4.50;3.40;;;;;;;;;;5095785;28;20425;-81
2023/10/05 08:48:49;;;;;;;3.88;3.30;;;;;;;;;;5096699;28;20739;-81
2023/10/05 08:51:16;;;;;;;6.80;3.57;;;;;;;;;;5097119;28;20413;-81
2023/10/05 08:53:59;;;;;;;5.38;3.40;;;;;;;;;;5096428;28;20374;-81
2023/10/05 08:56:26;;;;;;;5.30;3.80;;;;;;;;;;5097036;28;20406;-81
2023/10/05 08:58:52;;;;;;;7.07;3.97;;;;;;;;;;5089643;28;20837;-81
2023/10/05 09:01:26;;;;;;;5.05;3.53;;;;;;;;;;5088082;28;20382;-81
2023/10/05 09:04:01;;;;;;;5.00;3.67;;;;;;;;;;5096451;28;20386;-81
2023/10/05 09:06:27;;;;;;;4.75;3.28;;;;;;;;;;5096540;28;20481;-81
2023/10/05 09:09:07;;;;;;;5.00;3.30;;;;;;;;;;5077221;28;20384;-81
2023/10/05 09:11:34;;;;;;;4.43;3.30;;;;;;;;;;5088471;28;20385;-81
2023/10/05 09:14:12;;;;;;;4.60;3.40;;;;;;;;;;5095979;28;20447;-81
2023/10/05 09:16:41;;;;;;;6.80;3.00;;;;;;;;;;5096426;28;20374;-81
2023/10/05 09:19:08;;;;;;;6.28;3.20;;;;;;;;;;5096248;28;20386;-81
2023/10/05 09:21:44;;;;;;;5.90;3.50;;;;;;;;;;5090309;28;20382;-81
2023/10/05 09:24:22;;;;;;;6.28;3.00;;;;;;;;;;5080411;28;20390;-81
2023/10/05 09:26:52;;;;;;;5.05;3.08;;;;;;;;;;5095784;28;20410;-81
2023/10/05 09:29:22;;;;;;;4.95;2.97;;;;;;;;;;5096828;28;20414;-81
2023/10/05 09:31:53;;;;;;;5.20;3.20;;;;;;;;;;5096176;28;20378;-81
2023/10/05 09:34:35;;;;;;;4.28;3.00;;;;;;;;;;5078103;28;20860;-82
2023/10/05 09:37:06;;;;;;;4.78;2.88;;;;;;;;;;5084637;28;20370;-81
2023/10/05 09:39:37;;;;;;;4.45;2.85;;;;;;;;;;5085432;28;20437;-82
2023/10/05 09:42:04;;;;;;;5.35;3.15;;;;;;;;;;5079555;28;20399;-81
2023/10/05 09:44:31;;;;;;;4.55;3.28;;;;;;;;;;5093894;28;20381;-81
2023/10/05 09:46:59;;;;;;;5.13;2.90;;;;;;;;;;5099696;28;20489;-81
2023/10/05 09:49:30;;;;;;;5.90;3.13;;;;;;;;;;5081657;28;20397;-81
2023/10/05 09:51:57;;;;;;;5.10;2.50;;;;;;;;;;5066650;28;20457;-82
2023/10/05 09:54:27;;;;;;;3.85;2.80;;;;;;;;;;5100059;28;20437;-82
2023/10/05 09:56:54;;;;;;;3.40;2.15;;;;;;;;;;5099324;28;20405;-81
2023/10/05 09:59:21;;;;;;;3.15;2.42;;;;;;;;;;5094956;28;20863;-81
2023/10/05 10:01:49;;;;;;;3.65;2.35;;;;;;;;;;5075795;28;20425;-81
2023/10/05 10:04:34;;;;;;;3.08;2.20;;;;;;;;;;5087894;28;20701;-81
2023/10/05 10:07:01;;;;;;;4.18;2.70;;;;;;;;;;5095740;28;20411;-81
2023/10/05 10:09:28;;;;;;;5.57;2.97;;;;;;;;;;5088613;28;20701;-81
2023/10/05 10:11:59;;;;;;;4.07;2.77;;;;;;;;;;5099681;28;20378;-81
2023/10/05 10:14:26;;;;;;;3.90;3.00;;;;;;;;;;5095903;28;20720;-81
2023/10/05 10:17:02;;;;;;;4.70;2.72;;;;;;;;;;5099213;28;20408;-82
2023/10/05 10:19:43;;;;;;;3.70;2.40;;;;;;;;;;5092733;28;20425;-81
2023/10/05 10:22:12;;;;;;;2.63;2.10;;;;;;;;;;5086468;28;20983;-81
2023/10/05 10:24:40;;;;;;;3.47;1.83;;;;;;;;;;5098939;28;20378;-81
2023/10/05 10:27:11;;;;;;;2.60;1.70;;;;;;;;;;5083246;28;20458;-81
2023/10/05 10:29:58;;;;;;;2.70;2.00;;;;;;;;;;5085834;28;20374;-82
2023/10/05 10:32:34;;;;;;;2.40;1.60;;;;;;;;;;5097791;28;20467;-82
2023/10/05 10:35:09;;;;;;;3.13;1.80;;;;;;;;;;5082920;28;20430;-82
2023/10/05 10:37:49;;;;;;;2.95;1.90;;;;;;;;;;5091753;28;20410;-82
2023/10/05 10:45:32;;;;;;;3.08;1.80;;;;;;;;;;5075179;28;20849;-80
2023/10/05 10:47:58;;;;;;;2.70;1.83;;;;;;;;;;5077676;28;20470;-80
2023/10/05 10:50:30;;;;;;;2.92;2.10;;;;;;;;;;5081241;28;20376;-81
2023/10/05 10:52:58;;;;;;;4.68;2.00;;;;;;;;;;5087729;28;20400;-81
2023/10/05 10:55:31;;;;;;;3.10;1.70;;;;;;;;;;5084020;28;20378;-80
2023/10/05 10:57:59;;;;;;;4.95;2.28;;;;;;;;;;5099260;28;20392;-81
2023/10/05 11:03:15;;;;;;;2.95;2.00;;;;;;;;;;5083908;28;20400;-81
2023/10/05 11:05:51;;;;;;;2.63;2.10;;;;;;;;;;5081848;28;20401;-81
2023/10/05 11:08:20;;;;;;;4.30;1.83;;;;;;;;;;5082995;28;20845;-81
2023/10/05 11:10:59;;;;;;;3.72;1.73;;;;;;;;;;5075334;28;20432;-78
2023/10/05 11:13:26;;;;;;;3.25;2.08;;;;;;;;;;5078253;28;20440;-81
2023/10/05 11:15:57;;;;;;;2.80;1.83;;;;;;;;;;5077206;28;20384;-81
2023/10/05 11:18:24;;;;;;;3.45;2.00;;;;;;;;;;5077792;28;20390;-81
2023/10/05 11:20:53;;;;;;;3.22;2.03;;;;;;;;;;5077668;28;20410;-81
2023/10/05 11:23:26;;;;;;;4.13;1.90;;;;;;;;;;5091459;28;20383;-81
2023/10/05 11:26:13;;;;;;;2.90;1.92;;;;;;;;;;5078461;28;20407;-81
2023/10/05 11:28:38;;;;;;;4.57;2.00;;;;;;;;;;5077441;28;20725;-81
2023/10/05 11:31:04;;;;;;;3.63;1.80;;;;;;;;;;5076768;28;20391;-81
2023/10/05 11:33:34;;;;;;;3.42;1.92;;;;;;;;;;5079168;28;20718;-80
2023/10/05 11:36:17;;;;;;;3.47;2.20;;;;;;;;;;5090883;28;20386;-80
2023/10/05 11:38:43;;;;;;;2.92;2.08;;;;;;;;;;5079491;28;20383;-80
2023/10/05 11:41:16;;;;;;;4.15;2.03;;;;;;;;;;5079095;28;20372;-80
2023/10/05 11:43:42;;;;;;;3.80;2.20;;;;;;;;;;5076565;28;20372;-78
2023/10/05 11:46:24;;;;;;;3.75;2.22;;;;;;;;;;5073501;28;20407;-77
2023/10/05 11:48:56;;;;;;;3.00;2.15;;;;;;;;;;5074619;28;20375;-78
2023/10/05 11:51:41;;;;;;;2.85;2.08;;;;;;;;;;5083408;28;20382;-77
2023/10/05 11:54:11;;;;;;;3.00;2.08;;;;;;;;;;5074145;28;20382;-78
2023/10/05 11:56:40;;;;;;;2.95;2.15;;;;;;;;;;5074882;28;20402;-80
2023/10/05 11:59:07;;;;;;;2.85;1.98;;;;;;;;;;5078826;28;20441;-80
2023/10/05 12:01:33;;;;;;;4.15;2.08;;;;;;;;;;5077779;28;20388;-80
2023/10/05 12:04:03;;;;;;;2.55;2.00;;;;;;;;;;5079968;28;20384;-80
2023/10/05 12:06:33;;;;;;;4.30;2.15;;;;;;;;;;5077926;28;20503;-80
2023/10/05 12:09:27;;;;;;;3.22;2.20;;;;;;;;;;5078820;28;20383;-80
2023/10/05 12:11:54;;;;;;;2.40;1.88;;;;;;;;;;5074626;28;20391;-77
2023/10/05 12:14:20;;;;;;;2.83;2.00;;;;;;;;;;5074432;28;20414;-77
2023/10/05 12:16:46;;;;;;;2.25;1.83;;;;;;;;;;5073797;28;20391;-78
2023/10/05 12:19:16;;;;;;;2.53;1.95;;;;;;;;;;5073112;28;20388;-78
2023/10/05 12:21:43;;;;;;;2.85;2.17;;;;;;;;;;5075827;28;20391;-79
2023/10/05 12:24:11;;;;;;;3.63;2.25;;;;;;;;;;5078734;28;20935;-79
2023/10/05 12:26:39;;;;;;;2.45;1.90;;;;;;;;;;5078308;28;20761;-78
2023/10/05 12:29:13;;;;;;;2.28;1.75;;;;;;;;;;5075918;28;20437;-79
2023/10/05 12:31:46;;;;;;;4.03;2.03;;;;;;;;;;5076368;28;20741;-81
2023/10/05 12:34:16;;;;;;;2.28;1.85;;;;;;;;;;5077810;28;20399;-82
2023/10/05 12:36:49;;;;;;;4.43;2.30;;;;;;;;;;5080210;28;20421;-81
2023/10/05 12:39:17;;;;;;;3.50;2.05;;;;;;;;;;5094697;28;20385;-82
2023/10/05 12:41:43;;;;;;;3.15;2.10;;;;;;;;;;5088372;28;20372;-82
2023/10/05 12:44:13;;;;;;;3.55;1.90;;;;;;;;;;5074854;28;20388;-82
2023/10/05 12:46:39;;;;;;;3.72;1.88;;;;;;;;;;5089254;28;20441;-82
2023/10/05 12:49:10;;;;;;;2.75;1.90;;;;;;;;;;5074444;28;20754;-82
2023/10/05 12:51:36;;;;;;;4.53;2.20;;;;;;;;;;5089093;28;20376;-82
2023/10/05 12:54:03;;;;;;;3.10;2.10;;;;;;;;;;5083936;28;20378;-83
2023/10/05 12:56:30;;;;;;;3.25;2.08;;;;;;;;;;5096700;28;20465;-82
2023/10/05 12:58:56;;;;;;;2.70;2.20;;;;;;;;;;5072398;28;20424;-83
2023/10/05 13:01:26;;;;;;;3.33;2.20;;;;;;;;;;5089455;28;20412;-82
2023/10/05 13:03:52;;;;;;;3.30;1.90;;;;;;;;;;5090670;28;20407;-82
2023/10/05 13:06:18;;;;;;;2.75;2.28;;;;;;;;;;5087961;28;20428;-82
2023/10/05 13:08:44;;;;;;;3.60;2.30;;;;;;;;;;5092880;28;20447;-82
2023/10/05 13:11:14;;;;;;;2.53;2.27;;;;;;;;;;5085257;28;21306;-83
2023/10/05 13:13:40;;;;;;;4.53;2.47;;;;;;;;;;5080602;28;20403;-83
2023/10/05 13:16:13;;;;;;;2.60;2.20;;;;;;;;;;5084469;28;20409;-82
2023/10/05 13:18:42;;;;;;;3.28;2.05;;;;;;;;;;5081377;28;20383;-82
2023/10/05 13:21:14;;;;;;;4.77;3.07;;;;;;;;;;5094144;28;20416;-82
2023/10/05 13:23:40;;;;;;;3.88;2.67;;;;;;;;;;5075856;28;20391;-82
2023/10/05 13:26:06;;;;;;;6.85;4.70;;;;;;;;;;5097669;22;20484;-79
2023/10/05 13:28:33;;;;;;;7.63;4.95;;;;;;;;;;5081469;28;20792;-81
2023/10/05 13:31:05;;;;;;;3.88;2.72;;;;;;;;;;5084973;28;20393;-82
2023/10/05 13:33:34;;;;;;;8.73;3.13;;;;;;;;;;5079681;28;20388;-82
2023/10/05 13:36:04;;;;;;;19.95;3.65;;;;;;;;;;5084785;28;20500;-81
2023/10/05 13:38:33;;;;;;;3.80;2.30;;;;;;;;;;5083886;28;20418;-82
2023/10/05 13:43:33;;;;;;;5.47;2.47;;;;;;;;;;5072473;28;20383;-80
2023/10/05 13:48:41;;;;;;;4.63;2.65;;;;;;;;;;5075645;28;20388;-78
2023/10/05 13:51:16;;;;;;;3.70;2.20;;;;;;;;;;5074701;28;20390;-79
2023/10/05 13:53:47;;;;;;;4.90;2.20;;;;;;;;;;5074572;28;20384;-78
2023/10/05 13:56:14;;;;;;;3.45;2.25;;;;;;;;;;5073161;28;20386;-78
2023/10/05 13:58:47;;;;;;;3.50;2.78;;;;;;;;;;5072916;28;20382;-78
2023/10/05 14:01:16;;;;;;;3.33;2.00;;;;;;;;;;5073341;28;20457;-78
2023/10/05 14:03:45;;;;;;;4.30;2.85;;;;;;;;;;5073396;28;20404;-78
2023/10/05 14:06:11;;;;;;;4.18;2.42;;;;;;;;;;5079454;28;20477;-78
2023/10/05 14:08:37;;;;;;;3.70;2.33;;;;;;;;;;5074618;28;20406;-77
2023/10/05 14:11:03;;;;;;;3.28;2.28;;;;;;;;;;5070964;28;20463;-78
2023/10/05 14:13:29;;;;;;;5.60;3.63;;;;;;;;;;5071433;28;20467;-78
2023/10/05 14:15:55;;;;;;;8.15;3.75;;;;;;;;;;5059632;28;20845;-78
2023/10/05 14:18:22;;;;;;;5.30;3.97;;;;;;;;;;5070752;28;20376;-78
2023/10/05 14:20:51;;;;;;;5.22;3.13;;;;;;;;;;5070670;28;20383;-78
2023/10/05 14:23:20;;;;;;;4.30;2.75;;;;;;;;;;5071673;28;20418;-78
2023/10/05 14:25:46;;;;;;;4.03;2.40;;;;;;;;;;5074457;28;20418;-78
2023/10/05 14:28:17;;;;;;;5.82;2.50;;;;;;;;;;5074093;28;20928;-78
2023/10/05 14:30:43;;;;;;;3.90;2.80;;;;;;;;;;5074789;28;20509;-77
2023/10/05 14:33:16;;;;;;;2.85;2.25;;;;;;;;;;5074409;28;20879;-78
2023/10/05 14:35:42;;;;;;;2.40;1.97;;;;;;;;;;5074405;28;20440;-77
2023/10/05 14:38:16;;;;;;;2.75;1.90;;;;;;;;;;5074177;28;20387;-78
2023/10/05 14:40:46;;;;;;;5.55;2.50;;;;;;;;;;5074049;28;20465;-78
2023/10/05 14:43:20;;;;;;;4.15;2.28;;;;;;;;;;5072433;28;20379;-78
2023/10/05 14:45:48;;;;;;;4.75;2.30;;;;;;;;;;5073722;28;20411;-79
2023/10/05 14:48:14;;;;;;;6.45;2.63;;;;;;;;;;5073151;28;20391;-77
2023/10/05 14:50:40;;;;;;;4.30;2.60;;;;;;;;;;5074144;28;20382;-77
2023/10/05 14:53:11;;;;;;;7.22;4.43;;;;;;;;;;5078858;28;20388;-80
2023/10/05 14:55:37;;;;;;;5.43;2.42;;;;;;;;;;5087574;28;20399;-80
2023/10/05 14:58:08;;;;;;;5.70;2.47;;;;;;;;;;5087904;28;20470;-80
2023/10/05 15:00:35;;;;;;;3.25;2.55;;;;;;;;;;5086330;28;20428;-80
2023/10/05 15:03:01;;;;;;;3.42;2.35;;;;;;;;;;5086633;28;20380;-80
2023/10/05 15:05:27;;;;;;;4.10;2.80;;;;;;;;;;5087885;28;20384;-81
2023/10/05 15:07:58;;;;;;;4.35;3.17;;;;;;;;;;5089322;28;20384;-79
2023/10/05 15:10:24;;;;;;;3.22;2.45;;;;;;;;;;5089405;28;20451;-79
2023/10/05 15:12:51;;;;;;;3.85;2.30;;;;;;;;;;5088833;28;20436;-81
2023/10/05 15:15:17;;;;;;;4.00;2.53;;;;;;;;;;5082106;28;20744;-81
2023/10/05 15:17:46;;;;;;;3.50;2.35;;;;;;;;;;5088628;28;20761;-81
2023/10/05 15:20:22;;;;;;;4.65;2.58;;;;;;;;;;5085976;28;20444;-81
2023/10/05 15:22:48;;;;;;;4.32;2.63;;;;;;;;;;5086927;28;20380;-81
2023/10/05 15:25:17;;;;;;;4.63;2.58;;;;;;;;;;5086235;28;20388;-80
2023/10/05 15:27:44;;;;;;;2.83;2.10;;;;;;;;;;5085935;28;20430;-82
2023/10/05 15:30:12;;;;;;;4.03;2.42;;;;;;;;;;5085260;28;20506;-80
2023/10/05 15:32:38;;;;;;;4.78;2.67;;;;;;;;;;5084757;28;20410;-81